createdAt,value
2023-02-17T00:00:14.557Z,101130.97
2023-02-17T00:01:24.797Z,101126.69
2023-02-17T00:02:26.744Z,101121.56
2023-02-17T00:03:28.875Z,101128.53
2023-02-17T00:04:33.066Z,101126.72
2023-02-17T00:05:35.003Z,101126.69
2023-02-17T00:06:37.004Z,101116.25
2023-02-17T00:07:39.586Z,101114.38
2023-02-17T00:08:41.640Z,101114.25
2023-02-17T00:09:43.742Z,101114.16
2023-02-17T00:10:45.689Z,101118.59
2023-02-17T00:11:47.585Z,101116.00
2023-02-17T00:12:49.574Z,101115.00
2023-02-17T00:13:53.969Z,101108.13
2023-02-17T00:14:57.987Z,101116.75
2023-02-17T00:16:00.303Z,101122.75
2023-02-17T00:17:02.289Z,101113.28
2023-02-17T00:18:04.590Z,101113.50
2023-02-17T00:19:25.028Z,101105.59
2023-02-17T00:20:29.638Z,101122.84
2023-02-17T00:21:32.349Z,101122.00
2023-02-17T00:22:34.299Z,101119.41
2023-02-17T00:23:36.290Z,101116.84
2023-02-17T00:24:40.229Z,101119.41
2023-02-17T00:25:42.243Z,101110.78
2023-02-17T00:26:44.692Z,101109.69
2023-02-17T00:27:46.681Z,101113.16
2023-02-17T00:28:49.516Z,101113.91
2023-02-17T00:29:51.593Z,101107.84
2023-02-17T00:30:53.589Z,101112.16
2023-02-17T00:31:56.609Z,101103.41
2023-02-17T00:32:59.343Z,101105.06
2023-02-17T00:34:01.415Z,101104.19
2023-02-17T00:35:03.636Z,101105.94
2023-02-17T00:36:07.386Z,101107.50
2023-02-17T00:37:09.480Z,101109.94
2023-02-17T00:38:11.443Z,101105.53
2023-02-17T00:39:16.952Z,101102.09
2023-02-17T00:40:19.141Z,101103.78
2023-02-17T00:41:21.552Z,101112.31
2023-02-17T00:42:23.610Z,101109.78
2023-02-17T00:43:25.781Z,101111.41
2023-02-17T00:44:27.916Z,101121.81
2023-02-17T00:45:29.892Z,101114.13
2023-02-17T00:46:32.035Z,101111.59
2023-02-17T00:47:34.153Z,101111.59
2023-02-17T00:48:36.346Z,101115.00
2023-02-17T00:49:38.388Z,101123.72
2023-02-17T00:50:40.433Z,101114.19
2023-02-17T00:51:42.526Z,101115.16
2023-02-17T00:52:44.789Z,101109.00
2023-02-17T00:53:47.308Z,101116.78
2023-02-17T00:54:49.483Z,101107.38
2023-02-17T00:55:51.715Z,101111.72
2023-02-17T00:56:53.919Z,101104.94
2023-02-17T00:57:56.037Z,101105.75
2023-02-17T00:58:58.016Z,101099.84
2023-02-17T01:00:00.039Z,101096.38
2023-02-17T01:01:02.259Z,101101.66
2023-02-17T01:02:04.475Z,101100.75
2023-02-17T01:03:06.622Z,101098.16
2023-02-17T01:04:08.809Z,101098.13
2023-02-17T01:05:10.888Z,101106.72
2023-02-17T01:06:51.151Z,101099.09
2023-02-17T01:07:53.288Z,101096.41
2023-02-17T01:08:55.783Z,101100.72
2023-02-17T01:09:57.794Z,101098.13
2023-02-17T01:10:59.684Z,101089.53
2023-02-17T01:12:01.632Z,101086.91
2023-02-17T01:13:03.766Z,101086.03
2023-02-17T01:14:06.780Z,101091.19
2023-02-17T01:15:09.024Z,101086.91
2023-02-17T01:16:23.229Z,101086.03
2023-02-17T01:17:25.282Z,101077.47
2023-02-17T01:18:27.380Z,101072.38
2023-02-17T01:19:29.660Z,101069.09
2023-02-17T01:20:35.089Z,101075.19
2023-02-17T01:21:37.107Z,101082.94
2023-02-17T01:22:40.085Z,101077.78
2023-02-17T01:23:42.143Z,101069.94
2023-02-17T01:24:44.277Z,101068.25
2023-02-17T01:25:47.772Z,101063.78
2023-02-17T01:26:49.818Z,101073.34
2023-02-17T01:27:51.983Z,101066.44
2023-02-17T01:28:55.040Z,101067.34
2023-02-17T01:29:57.186Z,101055.22
2023-02-17T01:30:59.474Z,101060.41
2023-02-17T01:32:01.564Z,101063.78
2023-02-17T01:33:03.613Z,101054.19
2023-02-17T01:34:05.785Z,101059.38
2023-02-17T01:35:08.135Z,101063.78
2023-02-17T01:36:12.708Z,101050.94
2023-02-17T01:37:15.409Z,101055.16
2023-02-17T01:38:17.355Z,101051.56
2023-02-17T01:39:19.288Z,101049.94
2023-02-17T01:40:21.370Z,101047.38
2023-02-17T01:41:29.239Z,101047.38
2023-02-17T01:42:31.426Z,101032.50
2023-02-17T01:43:33.679Z,101037.50
2023-02-17T01:44:35.601Z,101034.00
2023-02-17T01:45:47.292Z,101039.19
2023-02-17T01:46:54.952Z,101035.66
2023-02-17T01:48:11.740Z,101032.25
2023-02-17T01:49:36.140Z,101033.97
2023-02-17T01:50:44.340Z,101030.38
2023-02-17T01:51:50.007Z,101040.72
2023-02-17T01:52:55.110Z,101031.28
2023-02-17T01:54:05.601Z,101030.50
2023-02-17T01:55:13.893Z,101032.13
2023-02-17T01:56:17.645Z,101035.53
2023-02-17T01:57:23.849Z,101026.81
2023-02-17T01:58:28.406Z,101031.03
2023-02-17T01:59:31.170Z,101032.81
2023-02-17T02:00:34.318Z,101026.69
2023-02-17T02:01:36.854Z,101034.41
2023-02-17T02:02:42.257Z,101029.28
2023-02-17T02:03:44.758Z,101037.03
2023-02-17T02:04:51.532Z,101031.88
2023-02-17T02:05:53.662Z,101052.56
2023-02-17T02:06:56.088Z,101058.00
2023-02-17T02:07:58.366Z,101064.03
2023-02-17T02:09:04.360Z,101058.88
2023-02-17T02:10:07.388Z,101064.91
2023-02-17T02:11:09.348Z,101063.28
2023-02-17T02:12:24.512Z,101053.78
2023-02-17T02:13:26.480Z,101061.44
2023-02-17T02:14:49.945Z,101060.81
2023-02-17T02:16:14.396Z,101058.50
2023-02-17T02:17:48.590Z,101066.25
2023-02-17T02:19:12.401Z,101058.63
2023-02-17T02:20:32.955Z,101061.16
2023-02-17T02:21:49.775Z,101066.25
2023-02-17T02:23:03.799Z,101060.19
2023-02-17T02:24:24.208Z,101065.56
2023-02-17T02:25:58.100Z,101065.56
2023-02-17T02:27:12.110Z,101053.31
2023-02-17T02:28:14.159Z,101056.72
2023-02-17T02:29:27.921Z,101058.38
2023-02-17T02:30:39.040Z,101056.72
2023-02-17T02:32:18.442Z,101055.97
2023-02-17T02:33:38.010Z,101046.38
2023-02-17T02:34:48.223Z,101053.19
2023-02-17T02:36:12.314Z,101056.72
2023-02-17T02:37:37.118Z,101049.94
2023-02-17T02:38:53.320Z,101055.91
2023-02-17T02:39:56.792Z,101048.00
2023-02-17T02:41:11.817Z,101045.44
2023-02-17T02:42:18.901Z,101038.63
2023-02-17T02:43:22.581Z,101046.38
2023-02-17T02:44:25.521Z,101044.63
2023-02-17T02:45:27.556Z,101046.31
2023-02-17T02:46:29.600Z,101037.50
2023-02-17T02:47:54.060Z,101035.66
2023-02-17T02:48:56.092Z,101043.34
2023-02-17T02:49:58.396Z,101048.47
2023-02-17T02:51:12.437Z,101042.22
2023-02-17T02:52:17.472Z,101045.50
2023-02-17T02:53:57.774Z,101043.72
2023-02-17T02:55:11.176Z,101045.38
2023-02-17T02:56:52.847Z,101041.84
2023-02-17T02:58:07.958Z,101033.00
2023-02-17T02:59:18.984Z,101041.50
2023-02-17T03:00:41.771Z,101042.31
2023-02-17T03:01:43.630Z,101043.06
2023-02-17T03:03:21.710Z,101046.41
2023-02-17T03:04:37.129Z,101042.81
2023-02-17T03:05:47.909Z,101048.00
2023-02-17T03:06:57.223Z,101044.44
2023-02-17T03:08:20.060Z,101046.97
2023-02-17T03:09:26.359Z,101051.28
2023-02-17T03:10:28.663Z,101045.09
2023-02-17T03:11:33.839Z,101047.59
2023-02-17T03:12:38.360Z,101044.88
2023-02-17T03:13:41.504Z,101043.19
2023-02-17T03:14:43.920Z,101039.66
2023-02-17T03:15:47.003Z,101045.59
2023-02-17T03:16:50.876Z,101047.34
2023-02-17T03:17:52.908Z,101046.47
2023-02-17T03:18:54.911Z,101043.00
2023-02-17T03:19:56.976Z,101037.69
2023-02-17T03:21:06.211Z,101042.03
2023-02-17T03:22:14.062Z,101037.69
2023-02-17T03:23:16.312Z,101042.91
2023-02-17T03:24:19.696Z,101035.03
2023-02-17T03:25:21.942Z,101034.22
2023-02-17T03:26:24.055Z,101040.28
2023-02-17T03:27:26.037Z,101043.66
2023-02-17T03:28:28.057Z,101037.63
2023-02-17T03:29:30.200Z,101041.06
2023-02-17T03:30:32.330Z,101039.41
2023-02-17T03:31:34.838Z,101031.56
2023-02-17T03:32:37.399Z,101034.16
2023-02-17T03:33:39.410Z,101031.56
2023-02-17T03:34:41.555Z,101031.56
2023-02-17T03:35:43.594Z,101031.56
2023-02-17T03:36:45.542Z,101029.81
2023-02-17T03:37:47.479Z,101027.16
2023-02-17T03:38:49.676Z,101034.03
2023-02-17T03:39:51.744Z,101027.00
2023-02-17T03:40:53.970Z,101027.84
2023-02-17T03:41:56.052Z,101023.41
2023-02-17T03:42:58.137Z,101031.16
2023-02-17T03:44:00.267Z,101031.16
2023-02-17T03:45:02.639Z,101027.75
2023-02-17T03:46:05.827Z,101030.34
2023-02-17T03:47:08.374Z,101032.03
2023-02-17T03:48:10.431Z,101022.47
2023-02-17T03:49:13.059Z,101025.75
2023-02-17T03:50:15.058Z,101019.63
2023-02-17T03:51:22.080Z,101025.59
2023-02-17T03:52:24.180Z,101030.78
2023-02-17T03:53:26.300Z,101028.06
2023-02-17T03:54:28.647Z,101021.06
2023-02-17T03:55:30.871Z,101026.25
2023-02-17T03:56:32.911Z,101022.75
2023-02-17T03:57:35.043Z,101020.16
2023-02-17T03:58:37.445Z,101020.16
2023-02-17T03:59:39.520Z,101022.75
2023-02-17T04:00:41.404Z,101016.75
2023-02-17T04:01:43.450Z,101014.19
2023-02-17T04:02:45.383Z,101011.59
2023-02-17T04:03:47.467Z,101008.97
2023-02-17T04:04:49.804Z,101011.47
2023-02-17T04:05:52.262Z,101007.91
2023-02-17T04:06:54.426Z,101010.59
2023-02-17T04:07:56.333Z,101004.53
2023-02-17T04:08:58.338Z,101003.53
2023-02-17T04:10:00.374Z,101004.19
2023-02-17T04:11:04.125Z,101004.28
2023-02-17T04:12:06.148Z,101006.03
2023-02-17T04:13:08.090Z,101004.13
2023-02-17T04:14:10.077Z,101002.34
2023-02-17T04:15:12.244Z,101003.25
2023-02-17T04:16:14.751Z,100996.25
2023-02-17T04:17:16.785Z,101000.59
2023-02-17T04:18:19.915Z,101003.19
2023-02-17T04:19:21.922Z,100997.94
2023-02-17T04:20:23.963Z,101010.19
2023-02-17T04:21:26.587Z,101001.59
2023-02-17T04:22:28.671Z,100995.56
2023-02-17T04:23:30.681Z,100998.84
2023-02-17T04:24:32.637Z,101001.56
2023-02-17T04:25:36.241Z,101007.50
2023-02-17T04:26:38.307Z,100995.44
2023-02-17T04:27:40.588Z,101010.09
2023-02-17T04:28:42.978Z,101004.13
2023-02-17T04:29:44.969Z,101001.56
2023-02-17T04:30:49.613Z,101003.44
2023-02-17T04:31:51.977Z,100998.28
2023-02-17T04:32:53.963Z,101007.91
2023-02-17T04:33:56.089Z,101003.53
2023-02-17T04:34:57.977Z,100999.25
2023-02-17T04:36:00.588Z,101009.63
2023-02-17T04:37:02.584Z,101007.66
2023-02-17T04:38:05.765Z,101004.31
2023-02-17T04:39:07.766Z,101006.91
2023-02-17T04:40:10.618Z,101001.69
2023-02-17T04:41:12.604Z,101004.41
2023-02-17T04:42:14.702Z,101006.25
2023-02-17T04:43:16.780Z,101004.69
2023-02-17T04:44:19.261Z,101014.19
2023-02-17T04:45:21.246Z,101011.59
2023-02-17T04:46:23.326Z,101014.19
2023-02-17T04:47:25.364Z,101011.72
2023-02-17T04:48:27.334Z,101013.44
2023-02-17T04:49:29.312Z,101018.66
2023-02-17T04:50:31.256Z,101012.56
2023-02-17T04:51:33.184Z,101015.19
2023-02-17T04:52:35.849Z,101011.88
2023-02-17T04:53:38.062Z,101013.66
2023-02-17T04:54:40.101Z,101013.47
2023-02-17T04:55:42.900Z,101022.31
2023-02-17T04:56:44.884Z,101019.97
2023-02-17T04:57:47.109Z,101017.44
2023-02-17T04:58:49.221Z,101020.09
2023-02-17T04:59:51.248Z,101023.34
2023-02-17T05:00:53.150Z,101026.00
2023-02-17T05:01:55.207Z,101018.13
2023-02-17T05:02:57.310Z,101017.25
2023-02-17T05:03:59.265Z,101020.63
2023-02-17T05:05:01.555Z,101017.28
2023-02-17T05:06:03.913Z,101011.25
2023-02-17T05:07:06.038Z,101011.47
2023-02-17T05:08:08.714Z,101012.38
2023-02-17T05:09:10.825Z,101017.56
2023-02-17T05:10:15.956Z,101021.09
2023-02-17T05:11:17.870Z,101015.19
2023-02-17T05:12:20.059Z,101018.56
2023-02-17T05:13:22.047Z,101012.66
2023-02-17T05:14:24.098Z,101006.88
2023-02-17T05:15:26.163Z,101014.56
2023-02-17T05:16:28.431Z,101012.78
2023-02-17T05:17:30.611Z,101012.16
2023-02-17T05:18:32.625Z,101014.97
2023-02-17T05:19:34.650Z,101016.59
2023-02-17T05:20:36.716Z,101013.03
2023-02-17T05:21:38.863Z,101013.16
2023-02-17T05:22:40.888Z,101012.28
2023-02-17T05:23:42.987Z,101014.22
2023-02-17T05:24:44.904Z,101011.88
2023-02-17T05:25:46.858Z,101012.06
2023-02-17T05:26:48.825Z,101012.19
2023-02-17T05:27:51.093Z,101008.94
2023-02-17T05:28:53.034Z,101013.13
2023-02-17T05:29:55.098Z,101006.25
2023-02-17T05:30:57.092Z,101008.94
2023-02-17T05:31:59.297Z,101008.81
2023-02-17T05:33:01.433Z,101007.00
2023-02-17T05:34:03.854Z,101004.38
2023-02-17T05:35:06.252Z,101002.09
2023-02-17T05:36:10.912Z,101008.13
2023-02-17T05:37:12.871Z,100998.72
2023-02-17T05:38:15.052Z,101005.50
2023-02-17T05:39:17.029Z,101005.50
2023-02-17T05:40:19.243Z,100998.72
2023-02-17T05:41:21.381Z,100996.16
2023-02-17T05:42:23.429Z,100991.75
2023-02-17T05:43:25.496Z,100996.13
2023-02-17T05:44:27.776Z,100994.16
2023-02-17T05:45:29.798Z,100988.25
2023-02-17T05:46:31.963Z,100993.28
2023-02-17T05:47:35.648Z,100990.63
2023-02-17T05:48:38.113Z,100982.25
2023-02-17T05:49:40.086Z,100981.16
2023-02-17T05:50:42.327Z,100987.16
2023-02-17T05:51:44.329Z,100975.94
2023-02-17T05:52:46.282Z,100981.28
2023-02-17T05:53:48.426Z,100983.94
2023-02-17T05:54:50.397Z,100982.50
2023-02-17T05:55:52.580Z,100979.06
2023-02-17T05:56:54.557Z,100985.19
2023-02-17T05:57:56.593Z,100977.41
2023-02-17T05:59:00.751Z,100979.16
2023-02-17T06:00:05.317Z,100975.69
2023-02-17T06:01:10.921Z,100974.81
2023-02-17T06:02:12.857Z,100991.06
2023-02-17T06:03:15.209Z,100984.88
2023-02-17T06:04:17.421Z,100992.00
2023-02-17T06:05:19.807Z,100985.06
2023-02-17T06:06:22.035Z,100981.53
2023-02-17T06:07:24.316Z,100988.25
2023-02-17T06:08:26.405Z,100986.78
2023-02-17T06:09:28.639Z,100986.81
2023-02-17T06:10:30.889Z,100986.81
2023-02-17T06:11:33.534Z,100988.63
2023-02-17T06:12:35.579Z,100990.50
2023-02-17T06:13:37.750Z,100981.16
2023-02-17T06:14:39.893Z,100991.69
2023-02-17T06:15:41.852Z,100981.16
2023-02-17T06:16:43.990Z,100978.66
2023-02-17T06:17:46.233Z,100989.00
2023-02-17T06:18:48.430Z,100983.97
2023-02-17T06:19:50.785Z,100989.22
2023-02-17T06:20:56.227Z,100986.56
2023-02-17T06:21:58.284Z,100982.41
2023-02-17T06:23:00.401Z,100988.38
2023-02-17T06:24:02.386Z,100990.38
2023-02-17T06:25:05.259Z,100989.28
2023-02-17T06:26:07.509Z,100990.00
2023-02-17T06:27:09.828Z,100993.53
2023-02-17T06:28:11.902Z,100984.94
2023-02-17T06:29:13.822Z,100983.88
2023-02-17T06:30:17.833Z,100981.78
2023-02-17T06:31:20.066Z,100990.63
2023-02-17T06:32:22.076Z,100985.56
2023-02-17T06:33:24.081Z,100987.31
2023-02-17T06:34:26.460Z,100985.56
2023-02-17T06:35:28.650Z,100986.66
2023-02-17T06:36:30.831Z,100985.81
2023-02-17T06:37:32.898Z,100978.19
2023-02-17T06:38:34.973Z,100980.00
2023-02-17T06:39:36.960Z,100978.28
2023-02-17T06:40:39.033Z,100979.13
2023-02-17T06:41:40.965Z,100984.31
2023-02-17T06:42:43.166Z,100983.19
2023-02-17T06:43:45.077Z,100985.94
2023-02-17T06:44:48.295Z,100987.72
2023-02-17T06:45:51.321Z,100984.84
2023-02-17T06:46:53.550Z,100983.84
2023-02-17T06:47:55.485Z,100983.06
2023-02-17T06:48:57.530Z,100982.81
2023-02-17T06:49:59.421Z,100980.53
2023-02-17T06:51:01.425Z,100995.41
2023-02-17T06:52:03.486Z,100980.75
2023-02-17T06:53:05.675Z,100981.09
2023-02-17T06:54:07.780Z,100977.88
2023-02-17T06:55:09.918Z,100983.25
2023-02-17T06:56:11.931Z,100983.47
2023-02-17T06:57:14.198Z,100976.63
2023-02-17T06:58:16.176Z,100975.75
2023-02-17T06:59:18.072Z,100981.13
2023-02-17T07:00:20.898Z,100982.72
2023-02-17T07:01:26.615Z,100977.69
2023-02-17T07:02:28.833Z,100979.53
2023-02-17T07:03:32.598Z,100979.00
2023-02-17T07:04:34.512Z,100979.34
2023-02-17T07:05:37.622Z,100971.75
2023-02-17T07:06:39.649Z,100979.50
2023-02-17T07:07:41.864Z,100983.22
2023-02-17T07:08:43.792Z,100975.47
2023-02-17T07:09:45.851Z,100975.47
2023-02-17T07:10:47.777Z,100980.31
2023-02-17T07:11:51.307Z,100977.53
2023-02-17T07:12:53.453Z,100975.03
2023-02-17T07:13:55.488Z,100971.25
2023-02-17T07:14:57.714Z,100972.06
2023-02-17T07:15:59.727Z,100980.25
2023-02-17T07:17:02.546Z,100972.63
2023-02-17T07:18:05.297Z,100979.44
2023-02-17T07:19:07.386Z,100975.06
2023-02-17T07:20:09.772Z,100981.75
2023-02-17T07:21:11.944Z,100977.81
2023-02-17T07:22:13.997Z,100977.91
2023-02-17T07:23:15.953Z,100972.53
2023-02-17T07:24:18.143Z,100979.53
2023-02-17T07:25:20.200Z,100968.34
2023-02-17T07:26:22.607Z,100977.66
2023-02-17T07:27:24.666Z,100976.22
2023-02-17T07:28:26.810Z,100977.38
2023-02-17T07:29:28.827Z,100981.72
2023-02-17T07:30:31.060Z,100981.94
2023-02-17T07:31:33.974Z,100979.47
2023-02-17T07:32:36.112Z,100978.75
2023-02-17T07:33:38.604Z,100975.25
2023-02-17T07:34:40.897Z,100974.50
2023-02-17T07:35:46.432Z,100969.56
2023-02-17T07:36:48.696Z,100970.84
2023-02-17T07:37:51.863Z,100969.94
2023-02-17T07:38:53.934Z,100954.34
2023-02-17T07:39:57.356Z,100966.44
2023-02-17T07:41:05.419Z,100961.94
2023-02-17T07:42:07.588Z,100953.13
2023-02-17T07:43:09.911Z,100948.66
2023-02-17T07:44:12.308Z,100962.81
2023-02-17T07:45:14.467Z,100943.59
2023-02-17T07:46:17.615Z,100945.34
2023-02-17T07:47:19.877Z,100950.78
2023-02-17T07:48:21.847Z,100948.50
2023-02-17T07:49:24.062Z,100944.28
2023-02-17T07:50:26.013Z,100947.44
2023-02-17T07:51:28.145Z,100939.91
2023-02-17T07:52:30.185Z,100944.00
2023-02-17T07:53:32.620Z,100948.31
2023-02-17T07:54:34.662Z,100941.28
2023-02-17T07:55:36.945Z,100945.06
2023-02-17T07:56:39.415Z,100945.38
2023-02-17T07:57:41.477Z,100940.34
2023-02-17T07:58:45.196Z,100943.22
2023-02-17T07:59:48.234Z,100943.50
2023-02-17T08:00:50.167Z,100939.50
2023-02-17T08:01:52.340Z,100940.47
2023-02-17T08:02:54.313Z,100941.53
2023-02-17T08:03:57.134Z,100933.66
2023-02-17T08:04:59.256Z,100937.44
2023-02-17T08:06:01.855Z,100941.56
2023-02-17T08:07:03.855Z,100936.47
2023-02-17T08:08:24.478Z,100929.69
2023-02-17T08:09:45.068Z,100924.00
2023-02-17T08:11:06.068Z,100928.84
2023-02-17T08:12:34.033Z,100926.69
2023-02-17T08:13:36.162Z,100927.03
2023-02-17T08:14:38.856Z,100933.75
2023-02-17T08:15:41.618Z,100930.56
2023-02-17T08:16:43.734Z,100929.78
2023-02-17T08:17:45.692Z,100928.22
2023-02-17T08:18:47.811Z,100927.53
2023-02-17T08:19:49.739Z,100928.22
2023-02-17T08:20:52.620Z,100922.28
2023-02-17T08:21:54.764Z,100921.88
2023-02-17T08:22:56.786Z,100926.25
2023-02-17T08:23:59.100Z,100928.44
2023-02-17T08:25:01.132Z,100933.53
2023-02-17T08:26:03.389Z,100918.63
2023-02-17T08:27:05.435Z,100920.25
2023-02-17T08:28:07.546Z,100920.22
2023-02-17T08:29:09.585Z,100916.25
2023-02-17T08:30:12.271Z,100907.84
2023-02-17T08:31:20.015Z,100916.66
2023-02-17T08:32:22.084Z,100909.94
2023-02-17T08:33:24.398Z,100905.97
2023-02-17T08:34:26.587Z,100910.69
2023-02-17T08:35:28.901Z,100903.16
2023-02-17T08:36:31.673Z,100902.81
2023-02-17T08:37:33.823Z,100907.16
2023-02-17T08:38:35.875Z,100908.81
2023-02-17T08:39:38.931Z,100899.81
2023-02-17T08:40:40.935Z,100895.38
2023-02-17T08:41:43.797Z,100889.75
2023-02-17T08:42:45.870Z,100896.78
2023-02-17T08:43:49.041Z,100886.53
2023-02-17T08:44:51.237Z,100899.00
2023-02-17T08:45:53.604Z,100892.53
2023-02-17T08:46:55.639Z,100896.38
2023-02-17T08:47:59.060Z,100891.56
2023-02-17T08:49:01.030Z,100892.69
2023-02-17T08:50:05.463Z,100888.41
2023-02-17T08:51:08.160Z,100891.06
2023-02-17T08:52:10.450Z,100894.66
2023-02-17T08:53:12.402Z,100902.34
2023-02-17T08:54:16.203Z,100898.19
2023-02-17T08:55:20.455Z,100890.66
2023-02-17T08:56:23.311Z,100894.84
2023-02-17T08:57:26.874Z,100894.22
2023-02-17T08:58:29.019Z,100890.00
2023-02-17T08:59:31.049Z,100892.53
2023-02-17T09:00:33.046Z,100891.53
2023-02-17T09:01:35.585Z,100895.09
2023-02-17T09:02:38.098Z,100892.44
2023-02-17T09:03:41.862Z,100888.88
2023-02-17T09:04:44.424Z,100883.78
2023-02-17T09:05:46.719Z,100888.50
2023-02-17T09:06:53.471Z,100883.97
2023-02-17T09:07:55.415Z,100884.53
2023-02-17T09:08:57.463Z,100880.50
2023-02-17T09:09:59.606Z,100888.44
2023-02-17T09:11:01.932Z,100880.75
2023-02-17T09:12:05.121Z,100880.56
2023-02-17T09:13:07.112Z,100882.25
2023-02-17T09:14:09.782Z,100878.94
2023-02-17T09:15:11.954Z,100877.06
2023-02-17T09:16:14.223Z,100872.81
2023-02-17T09:17:16.221Z,100875.63
2023-02-17T09:18:18.280Z,100868.72
2023-02-17T09:19:21.016Z,100875.63
2023-02-17T09:20:25.103Z,100868.31
2023-02-17T09:21:27.669Z,100868.97
2023-02-17T09:22:32.352Z,100867.31
2023-02-17T09:23:34.791Z,100869.59
2023-02-17T09:24:38.889Z,100873.28
2023-02-17T09:25:40.939Z,100866.66
2023-02-17T09:26:42.999Z,100870.13
2023-02-17T09:27:45.209Z,100865.81
2023-02-17T09:28:48.027Z,100858.78
2023-02-17T09:29:50.232Z,100865.91
2023-02-17T09:30:52.337Z,100865.13
2023-02-17T09:31:54.547Z,100856.75
2023-02-17T09:32:57.158Z,100866.19
2023-02-17T09:33:59.617Z,100859.16
2023-02-17T09:35:03.413Z,100853.22
2023-02-17T09:36:07.501Z,100855.03
2023-02-17T09:37:13.951Z,100846.03
2023-02-17T09:38:16.946Z,100846.84
2023-02-17T09:39:19.109Z,100846.03
2023-02-17T09:40:38.302Z,100852.06
2023-02-17T09:41:45.460Z,100855.34
2023-02-17T09:42:48.213Z,100850.84
2023-02-17T09:43:54.921Z,100854.34
2023-02-17T09:45:11.937Z,100852.13
2023-02-17T09:47:00.570Z,100856.75
2023-02-17T09:48:14.370Z,100854.91
2023-02-17T09:49:21.527Z,100851.38
2023-02-17T09:50:29.046Z,100848.81
2023-02-17T09:51:37.832Z,100854.09
2023-02-17T09:53:02.669Z,100848.28
2023-02-17T09:54:21.708Z,100847.53
2023-02-17T09:55:34.622Z,100844.94
2023-02-17T09:56:43.227Z,100849.16
2023-02-17T09:57:48.069Z,100845.03
2023-02-17T09:58:56.886Z,100839.53
2023-02-17T10:00:10.329Z,100838.69
2023-02-17T10:01:19.759Z,100839.75
2023-02-17T10:02:48.529Z,100847.78
2023-02-17T10:04:03.368Z,100837.75
2023-02-17T10:05:09.596Z,100838.72
2023-02-17T10:06:32.907Z,100838.03
2023-02-17T10:08:07.898Z,100834.72
2023-02-17T10:09:35.034Z,100834.66
2023-02-17T10:11:08.627Z,100837.41
2023-02-17T10:12:15.912Z,100826.06
2023-02-17T10:13:20.585Z,100822.72
2023-02-17T10:14:40.611Z,100822.31
2023-02-17T10:15:48.577Z,100827.03
2023-02-17T10:17:24.785Z,100824.78
2023-02-17T10:18:40.969Z,100821.91
2023-02-17T10:20:01.008Z,100824.78
2023-02-17T10:21:24.448Z,100811.91
2023-02-17T10:22:27.312Z,100815.50
2023-02-17T10:23:29.736Z,100810.59
2023-02-17T10:24:31.747Z,100811.72
2023-02-17T10:25:45.792Z,100809.22
2023-02-17T10:26:56.896Z,100805.22
2023-02-17T10:28:21.955Z,100806.19
2023-02-17T10:29:45.173Z,100807.03
2023-02-17T10:31:08.724Z,100807.31
2023-02-17T10:32:19.830Z,100802.03
2023-02-17T10:33:29.644Z,100805.56
2023-02-17T10:34:38.772Z,100806.47
2023-02-17T10:35:54.153Z,100803.69
2023-02-17T10:37:05.450Z,100807.22
2023-02-17T10:38:18.120Z,100801.25
2023-02-17T10:39:31.944Z,100798.78
2023-02-17T10:40:34.328Z,100808.59
2023-02-17T10:41:40.628Z,100794.97
2023-02-17T10:42:42.941Z,100800.19
2023-02-17T10:43:45.635Z,100796.47
2023-02-17T10:44:51.178Z,100792.50
2023-02-17T10:45:53.664Z,100790.59
2023-02-17T10:46:55.700Z,100794.06
2023-02-17T10:48:08.992Z,100799.03
2023-02-17T10:49:37.160Z,100790.38
2023-02-17T10:50:42.364Z,100791.91
2023-02-17T10:51:44.464Z,100793.66
2023-02-17T10:52:46.878Z,100786.81
2023-02-17T10:53:53.260Z,100790.34
2023-02-17T10:55:06.511Z,100792.09
2023-02-17T10:56:21.040Z,100787.50
2023-02-17T10:57:27.084Z,100789.84
2023-02-17T10:58:38.071Z,100791.41
2023-02-17T10:59:43.087Z,100795.63
2023-02-17T11:00:50.114Z,100790.16
2023-02-17T11:01:52.587Z,100795.53
2023-02-17T11:02:54.745Z,100792.44
2023-02-17T11:04:05.462Z,100800.38
2023-02-17T11:05:08.330Z,100791.81
2023-02-17T11:06:22.610Z,100789.38
2023-02-17T11:07:42.492Z,100798.25
2023-02-17T11:08:50.714Z,100795.72
2023-02-17T11:09:58.172Z,100792.88
2023-02-17T11:11:06.198Z,100797.03
2023-02-17T11:12:14.931Z,100796.16
2023-02-17T11:13:35.760Z,100794.75
2023-02-17T11:14:44.016Z,100791.13
2023-02-17T11:15:47.367Z,100795.22
2023-02-17T11:16:54.859Z,100794.41
2023-02-17T11:17:59.858Z,100790.38
2023-02-17T11:19:02.714Z,100799.03
2023-02-17T11:20:13.522Z,100796.41
2023-02-17T11:21:15.899Z,100793.75
2023-02-17T11:22:40.871Z,100788.75
2023-02-17T11:23:56.621Z,100789.50
2023-02-17T11:25:05.740Z,100793.84
2023-02-17T11:26:17.950Z,100787.88
2023-02-17T11:27:26.502Z,100786.03
2023-02-17T11:28:29.053Z,100791.06
2023-02-17T11:29:31.672Z,100791.81
2023-02-17T11:30:36.372Z,100796.13
2023-02-17T11:31:38.641Z,100793.38
2023-02-17T11:32:40.741Z,100789.78
2023-02-17T11:33:42.783Z,100795.06
2023-02-17T11:34:44.940Z,100781.25
2023-02-17T11:35:54.312Z,100781.16
2023-02-17T11:37:14.340Z,100782.66
2023-02-17T11:38:19.314Z,100783.69
2023-02-17T11:39:22.676Z,100786.09
2023-02-17T11:40:27.649Z,100781.59
2023-02-17T11:41:39.730Z,100787.75
2023-02-17T11:42:41.729Z,100786.94
2023-02-17T11:43:55.159Z,100780.06
2023-02-17T11:45:00.789Z,100787.13
2023-02-17T11:46:24.485Z,100779.25
2023-02-17T11:47:38.291Z,100789.78
2023-02-17T11:48:43.205Z,100785.16
2023-02-17T11:49:57.743Z,100787.66
2023-02-17T11:51:11.982Z,100790.41
2023-02-17T11:52:24.137Z,100788.59
2023-02-17T11:53:41.248Z,100793.78
2023-02-17T11:55:01.589Z,100786.72
2023-02-17T11:56:23.097Z,100791.81
2023-02-17T11:58:03.273Z,100783.22
2023-02-17T11:59:41.253Z,100785.13
2023-02-17T12:01:24.590Z,100782.66
2023-02-17T12:02:32.215Z,100783.31
2023-02-17T12:04:07.698Z,100784.34
2023-02-17T12:05:09.703Z,100782.66
2023-02-17T12:06:30.125Z,100774.75
2023-02-17T12:07:58.600Z,100777.34
2023-02-17T12:09:23.657Z,100773.75
2023-02-17T12:10:53.481Z,100785.44
2023-02-17T12:12:14.124Z,100779.97
2023-02-17T12:13:44.687Z,100778.19
2023-02-17T12:15:05.038Z,100785.03
2023-02-17T12:16:10.057Z,100784.84
2023-02-17T12:17:43.051Z,100790.13
2023-02-17T12:18:47.704Z,100773.66
2023-02-17T12:20:09.269Z,100787.38
2023-02-17T12:21:23.189Z,100776.84
2023-02-17T12:22:25.183Z,100783.72
2023-02-17T12:23:59.302Z,100769.72
2023-02-17T12:25:10.200Z,100771.25
2023-02-17T12:26:24.153Z,100771.16
2023-02-17T12:27:32.205Z,100765.78
2023-02-17T12:28:49.254Z,100760.50
2023-02-17T12:30:37.750Z,100761.34
2023-02-17T12:32:08.596Z,100767.31
2023-02-17T12:33:28.872Z,100761.09